sensor_id;sensor_type;location;lat;lon;timestamp;P1;durP1;ratioP1;P2;durP2;ratioP2
14681;SDS011;7429;52.498;13.480;2023-04-01T00:00:38;5.00;;;4.57;;
14681;SDS011;7429;52.498;13.480;2023-04-01T00:03:41;5.83;;;5.37;;
14681;SDS011;7429;52.498;13.480;2023-04-01T00:06:45;5.90;;;5.17;;
14681;SDS011;7429;52.498;13.480;2023-04-01T00:09:51;8.20;;;5.53;;
14681;SDS011;7429;52.498;13.480;2023-04-01T00:12:55;5.50;;;4.97;;
14681;SDS011;7429;52.498;13.480;2023-04-01T00:15:58;5.50;;;4.93;;
14681;SDS011;7429;52.498;13.480;2023-04-01T00:19:04;5.60;;;5.10;;
14681;SDS011;7429;52.498;13.480;2023-04-01T00:22:07;5.67;;;4.90;;
14681;SDS011;7429;52.498;13.480;2023-04-01T00:25:16;5.20;;;4.80;;
14681;SDS011;7429;52.498;13.480;2023-04-01T00:28:23;8.37;;;5.33;;
14681;SDS011;7429;52.498;13.480;2023-04-01T00:31:26;6.67;;;5.93;;
14681;SDS011;7429;52.498;13.480;2023-04-01T00:34:30;7.77;;;6.97;;
14681;SDS011;7429;52.498;13.480;2023-04-01T00:37:35;6.27;;;5.67;;
14681;SDS011;7429;52.498;13.480;2023-04-01T00:40:41;7.77;;;5.93;;
14681;SDS011;7429;52.498;13.480;2023-04-01T00:43:49;7.83;;;5.93;;
14681;SDS011;7429;52.498;13.480;2023-04-01T00:46:53;7.67;;;5.80;;
14681;SDS011;7429;52.498;13.480;2023-04-01T00:49:59;8.40;;;7.07;;
14681;SDS011;7429;52.498;13.480;2023-04-01T00:53:03;10.67;;;7.57;;
14681;SDS011;7429;52.498;13.480;2023-04-01T00:56:11;13.77;;;8.03;;
14681;SDS011;7429;52.498;13.480;2023-04-01T00:59:19;10.47;;;7.77;;
14681;SDS011;7429;52.498;13.480;2023-04-01T01:02:26;9.63;;;6.87;;
14681;SDS011;7429;52.498;13.480;2023-04-01T01:05:34;10.17;;;8.67;;
14681;SDS011;7429;52.498;13.480;2023-04-01T01:09:03;12.77;;;9.53;;
14681;SDS011;7429;52.498;13.480;2023-04-01T01:12:17;8.97;;;7.27;;
14681;SDS011;7429;52.498;13.480;2023-04-01T01:15:25;9.00;;;8.10;;
14681;SDS011;7429;52.498;13.480;2023-04-01T01:18:33;6.37;;;5.83;;
14681;SDS011;7429;52.498;13.480;2023-04-01T01:25:30;6.53;;;5.87;;
14681;SDS011;7429;52.498;13.480;2023-04-01T01:28:44;7.23;;;6.63;;
14681;SDS011;7429;52.498;13.480;2023-04-01T01:32:01;7.13;;;6.43;;
14681;SDS011;7429;52.498;13.480;2023-04-01T01:35:15;8.10;;;7.40;;
14681;SDS011;7429;52.498;13.480;2023-04-01T01:38:28;9.30;;;7.70;;
14681;SDS011;7429;52.498;13.480;2023-04-01T01:41:38;8.33;;;7.43;;
14681;SDS011;7429;52.498;13.480;2023-04-01T01:44:44;9.20;;;7.03;;
14681;SDS011;7429;52.498;13.480;2023-04-01T01:47:49;8.47;;;7.10;;
14681;SDS011;7429;52.498;13.480;2023-04-01T01:50:56;6.57;;;5.53;;
14681;SDS011;7429;52.498;13.480;2023-04-01T01:54:00;9.80;;;6.47;;
14681;SDS011;7429;52.498;13.480;2023-04-01T01:57:05;8.40;;;6.40;;
14681;SDS011;7429;52.498;13.480;2023-04-01T02:00:16;7.33;;;5.23;;
14681;SDS011;7429;52.498;13.480;2023-04-01T02:03:22;8.83;;;6.63;;
14681;SDS011;7429;52.498;13.480;2023-04-01T02:06:32;8.10;;;5.17;;
14681;SDS011;7429;52.498;13.480;2023-04-01T02:09:42;6.40;;;5.80;;
14681;SDS011;7429;52.498;13.480;2023-04-01T02:12:46;6.17;;;5.57;;
14681;SDS011;7429;52.498;13.480;2023-04-01T02:15:52;9.83;;;6.23;;
14681;SDS011;7429;52.498;13.480;2023-04-01T02:19:03;11.87;;;6.97;;
14681;SDS011;7429;52.498;13.480;2023-04-01T02:22:11;10.50;;;6.87;;
14681;SDS011;7429;52.498;13.480;2023-04-01T02:25:19;7.67;;;6.90;;
14681;SDS011;7429;52.498;13.480;2023-04-01T02:28:26;9.23;;;6.90;;
14681;SDS011;7429;52.498;13.480;2023-04-01T02:31:30;10.13;;;8.00;;
14681;SDS011;7429;52.498;13.480;2023-04-01T02:34:36;10.73;;;9.30;;
14681;SDS011;7429;52.498;13.480;2023-04-01T02:37:41;7.00;;;6.27;;
14681;SDS011;7429;52.498;13.480;2023-04-01T02:40:46;11.93;;;7.30;;
14681;SDS011;7429;52.498;13.480;2023-04-01T02:43:52;7.57;;;6.60;;
14681;SDS011;7429;52.498;13.480;2023-04-01T02:46:56;6.30;;;5.80;;
14681;SDS011;7429;52.498;13.480;2023-04-01T02:49:59;6.63;;;6.00;;
14681;SDS011;7429;52.498;13.480;2023-04-01T02:53:03;9.93;;;6.43;;
14681;SDS011;7429;52.498;13.480;2023-04-01T02:56:07;5.83;;;5.10;;
14681;SDS011;7429;52.498;13.480;2023-04-01T02:59:10;7.27;;;5.77;;
14681;SDS011;7429;52.498;13.480;2023-04-01T03:02:14;6.90;;;5.10;;
14681;SDS011;7429;52.498;13.480;2023-04-01T03:05:17;5.57;;;5.07;;
14681;SDS011;7429;52.498;13.480;2023-04-01T03:08:22;5.90;;;5.30;;
14681;SDS011;7429;52.498;13.480;2023-04-01T03:11:25;6.63;;;5.97;;
14681;SDS011;7429;52.498;13.480;2023-04-01T03:14:28;7.70;;;6.23;;
14681;SDS011;7429;52.498;13.480;2023-04-01T03:17:31;7.73;;;5.97;;
14681;SDS011;7429;52.498;13.480;2023-04-01T03:20:35;6.07;;;5.57;;
14681;SDS011;7429;52.498;13.480;2023-04-01T03:23:42;11.10;;;6.60;;
14681;SDS011;7429;52.498;13.480;2023-04-01T03:26:45;8.37;;;7.50;;
14681;SDS011;7429;52.498;13.480;2023-04-01T03:29:48;7.30;;;6.60;;
14681;SDS011;7429;52.498;13.480;2023-04-01T03:32:52;8.30;;;6.30;;
14681;SDS011;7429;52.498;13.480;2023-04-01T03:35:55;7.23;;;6.53;;
14681;SDS011;7429;52.498;13.480;2023-04-01T03:39:00;9.40;;;7.67;;
14681;SDS011;7429;52.498;13.480;2023-04-01T03:42:13;8.57;;;7.27;;
14681;SDS011;7429;52.498;13.480;2023-04-01T03:45:16;12.73;;;7.97;;
14681;SDS011;7429;52.498;13.480;2023-04-01T03:48:21;9.10;;;7.17;;
14681;SDS011;7429;52.498;13.480;2023-04-01T03:51:24;10.40;;;9.37;;
14681;SDS011;7429;52.498;13.480;2023-04-01T03:54:28;9.67;;;8.63;;
14681;SDS011;7429;52.498;13.480;2023-04-01T03:57:32;9.23;;;8.37;;
14681;SDS011;7429;52.498;13.480;2023-04-01T04:00:45;11.10;;;7.83;;
14681;SDS011;7429;52.498;13.480;2023-04-01T04:03:48;10.97;;;9.07;;
14681;SDS011;7429;52.498;13.480;2023-04-01T04:06:52;9.63;;;8.20;;
14681;SDS011;7429;52.498;13.480;2023-04-01T04:09:58;11.80;;;10.60;;
14681;SDS011;7429;52.498;13.480;2023-04-01T04:13:01;9.47;;;8.50;;
14681;SDS011;7429;52.498;13.480;2023-04-01T04:16:06;14.87;;;8.97;;
14681;SDS011;7429;52.498;13.480;2023-04-01T04:19:15;9.63;;;8.30;;
14681;SDS011;7429;52.498;13.480;2023-04-01T04:22:18;9.13;;;8.17;;
14681;SDS011;7429;52.498;13.480;2023-04-01T04:25:23;8.73;;;6.90;;
14681;SDS011;7429;52.498;13.480;2023-04-01T04:28:26;11.13;;;10.00;;
14681;SDS011;7429;52.498;13.480;2023-04-01T04:31:31;9.57;;;7.40;;
14681;SDS011;7429;52.498;13.480;2023-04-01T04:34:36;8.00;;;6.40;;
14681;SDS011;7429;52.498;13.480;2023-04-01T04:37:41;7.30;;;6.33;;
14681;SDS011;7429;52.498;13.480;2023-04-01T04:40:46;7.87;;;7.07;;
14681;SDS011;7429;52.498;13.480;2023-04-01T04:43:49;12.17;;;9.63;;
14681;SDS011;7429;52.498;13.480;2023-04-01T04:46:56;17.10;;;10.40;;
14681;SDS011;7429;52.498;13.480;2023-04-01T04:50:00;9.67;;;8.77;;
14681;SDS011;7429;52.498;13.480;2023-04-01T04:53:03;10.97;;;9.07;;
14681;SDS011;7429;52.498;13.480;2023-04-01T04:56:08;8.93;;;7.60;;
14681;SDS011;7429;52.498;13.480;2023-04-01T04:59:18;8.73;;;7.90;;
14681;SDS011;7429;52.498;13.480;2023-04-01T05:02:41;9.93;;;8.37;;
14681;SDS011;7429;52.498;13.480;2023-04-01T05:05:49;10.63;;;7.77;;
14681;SDS011;7429;52.498;13.480;2023-04-01T05:08:55;8.97;;;7.30;;
14681;SDS011;7429;52.498;13.480;2023-04-01T05:12:00;9.27;;;8.37;;
14681;SDS011;7429;52.498;13.480;2023-04-01T05:15:17;9.57;;;8.43;;
14681;SDS011;7429;52.498;13.480;2023-04-01T05:18:20;10.10;;;7.77;;
14681;SDS011;7429;52.498;13.480;2023-04-01T05:21:23;10.07;;;8.13;;
14681;SDS011;7429;52.498;13.480;2023-04-01T05:24:28;8.33;;;7.17;;
14681;SDS011;7429;52.498;13.480;2023-04-01T05:27:32;11.83;;;7.43;;
14681;SDS011;7429;52.498;13.480;2023-04-01T05:30:35;9.23;;;8.33;;
14681;SDS011;7429;52.498;13.480;2023-04-01T05:33:55;10.23;;;8.20;;
14681;SDS011;7429;52.498;13.480;2023-04-01T05:36:58;7.70;;;7.00;;
14681;SDS011;7429;52.498;13.480;2023-04-01T05:40:02;10.87;;;7.87;;
14681;SDS011;7429;52.498;13.480;2023-04-01T05:46:30;10.40;;;8.80;;
14681;SDS011;7429;52.498;13.480;2023-04-01T05:50:03;11.97;;;7.87;;
14681;SDS011;7429;52.498;13.480;2023-04-01T05:53:07;9.67;;;8.07;;
14681;SDS011;7429;52.498;13.480;2023-04-01T05:56:26;11.43;;;7.90;;
14681;SDS011;7429;52.498;13.480;2023-04-01T05:59:49;7.27;;;6.57;;
14681;SDS011;7429;52.498;13.480;2023-04-01T06:02:52;8.37;;;6.73;;
14681;SDS011;7429;52.498;13.480;2023-04-01T06:06:19;10.43;;;7.97;;
14681;SDS011;7429;52.498;13.480;2023-04-01T06:09:31;9.60;;;8.37;;
14681;SDS011;7429;52.498;13.480;2023-04-01T06:12:40;10.30;;;9.23;;
14681;SDS011;7429;52.498;13.480;2023-04-01T06:15:55;12.73;;;10.00;;
14681;SDS011;7429;52.498;13.480;2023-04-01T06:19:24;11.40;;;10.20;;
14681;SDS011;7429;52.498;13.480;2023-04-01T06:22:42;11.83;;;9.67;;
14681;SDS011;7429;52.498;13.480;2023-04-01T06:26:10;10.87;;;9.80;;
14681;SDS011;7429;52.498;13.480;2023-04-01T06:29:29;13.23;;;10.23;;
14681;SDS011;7429;52.498;13.480;2023-04-01T06:33:03;11.13;;;9.37;;
14681;SDS011;7429;52.498;13.480;2023-04-01T06:36:33;15.30;;;8.73;;
14681;SDS011;7429;52.498;13.480;2023-04-01T06:39:53;13.27;;;9.17;;
14681;SDS011;7429;52.498;13.480;2023-04-01T06:43:15;14.10;;;8.63;;
14681;SDS011;7429;52.498;13.480;2023-04-01T06:46:47;11.93;;;8.73;;
14681;SDS011;7429;52.498;13.480;2023-04-01T06:50:33;7.93;;;7.23;;
14681;SDS011;7429;52.498;13.480;2023-04-01T06:54:34;10.67;;;7.47;;
14681;SDS011;7429;52.498;13.480;2023-04-01T06:58:30;9.43;;;8.47;;
14681;SDS011;7429;52.498;13.480;2023-04-01T07:05:25;10.30;;;8.60;;
14681;SDS011;7429;52.498;13.480;2023-04-01T07:08:36;9.80;;;8.87;;
14681;SDS011;7429;52.498;13.480;2023-04-01T07:11:43;11.70;;;8.87;;
14681;SDS011;7429;52.498;13.480;2023-04-01T07:15:33;13.40;;;10.87;;
14681;SDS011;7429;52.498;13.480;2023-04-01T07:18:42;8.60;;;7.70;;
14681;SDS011;7429;52.498;13.480;2023-04-01T07:21:51;11.17;;;9.63;;
14681;SDS011;7429;52.498;13.480;2023-04-01T07:25:11;12.43;;;11.20;;
14681;SDS011;7429;52.498;13.480;2023-04-01T07:28:22;16.67;;;10.37;;
14681;SDS011;7429;52.498;13.480;2023-04-01T07:31:41;14.57;;;9.07;;
14681;SDS011;7429;52.498;13.480;2023-04-01T07:35:12;13.37;;;10.30;;
14681;SDS011;7429;52.498;13.480;2023-04-01T07:38:29;15.40;;;9.70;;
14681;SDS011;7429;52.498;13.480;2023-04-01T07:41:47;15.33;;;11.50;;
14681;SDS011;7429;52.498;13.480;2023-04-01T07:45:09;15.67;;;13.23;;
14681;SDS011;7429;52.498;13.480;2023-04-01T07:48:20;17.40;;;12.13;;
14681;SDS011;7429;52.498;13.480;2023-04-01T07:51:37;11.63;;;9.67;;
14681;SDS011;7429;52.498;13.480;2023-04-01T07:55:19;15.20;;;8.63;;
14681;SDS011;7429;52.498;13.480;2023-04-01T07:58:29;14.83;;;10.40;;
14681;SDS011;7429;52.498;13.480;2023-04-01T08:01:46;12.43;;;9.23;;
14681;SDS011;7429;52.498;13.480;2023-04-01T08:04:57;15.83;;;11.03;;
14681;SDS011;7429;52.498;13.480;2023-04-01T08:08:11;13.30;;;8.90;;
14681;SDS011;7429;52.498;13.480;2023-04-01T08:11:51;17.67;;;9.60;;
14681;SDS011;7429;52.498;13.480;2023-04-01T08:15:46;14.33;;;11.53;;
14681;SDS011;7429;52.498;13.480;2023-04-01T08:19:17;13.10;;;11.73;;
14681;SDS011;7429;52.498;13.480;2023-04-01T08:22:34;8.17;;;7.37;;
14681;SDS011;7429;52.498;13.480;2023-04-01T08:25:52;10.77;;;9.70;;
14681;SDS011;7429;52.498;13.480;2023-04-01T08:29:06;13.87;;;12.40;;
14681;SDS011;7429;52.498;13.480;2023-04-01T08:32:15;13.90;;;11.27;;
14681;SDS011;7429;52.498;13.480;2023-04-01T08:35:26;15.30;;;11.33;;
14681;SDS011;7429;52.498;13.480;2023-04-01T08:38:40;17.30;;;11.57;;
14681;SDS011;7429;52.498;13.480;2023-04-01T08:42:02;18.53;;;14.50;;
14681;SDS011;7429;52.498;13.480;2023-04-01T08:45:42;18.77;;;13.80;;
14681;SDS011;7429;52.498;13.480;2023-04-01T08:49:07;18.80;;;14.20;;
14681;SDS011;7429;52.498;13.480;2023-04-01T08:52:32;20.90;;;15.53;;
14681;SDS011;7429;52.498;13.480;2023-04-01T08:55:44;20.13;;;15.17;;
14681;SDS011;7429;52.498;13.480;2023-04-01T08:59:06;20.53;;;14.53;;
14681;SDS011;7429;52.498;13.480;2023-04-01T09:02:46;18.33;;;15.03;;
14681;SDS011;7429;52.498;13.480;2023-04-01T09:06:21;16.70;;;13.80;;
14681;SDS011;7429;52.498;13.480;2023-04-01T09:18:17;18.80;;;14.60;;
14681;SDS011;7429;52.498;13.480;2023-04-01T09:25:56;16.70;;;12.93;;
14681;SDS011;7429;52.498;13.480;2023-04-01T09:29:24;19.57;;;15.43;;
14681;SDS011;7429;52.498;13.480;2023-04-01T09:33:00;17.97;;;14.53;;
14681;SDS011;7429;52.498;13.480;2023-04-01T09:36:46;20.10;;;16.33;;
14681;SDS011;7429;52.498;13.480;2023-04-01T09:40:09;18.70;;;15.53;;
14681;SDS011;7429;52.498;13.480;2023-04-01T09:43:25;21.63;;;15.90;;
14681;SDS011;7429;52.498;13.480;2023-04-01T09:46:44;19.07;;;17.10;;
14681;SDS011;7429;52.498;13.480;2023-04-01T09:53:44;16.07;;;13.63;;
14681;SDS011;7429;52.498;13.480;2023-04-01T10:12:34;18.83;;;16.53;;
14681;SDS011;7429;52.498;13.480;2023-04-01T10:16:21;17.33;;;15.47;;
14681;SDS011;7429;52.498;13.480;2023-04-01T10:23:24;18.27;;;15.87;;
14681;SDS011;7429;52.498;13.480;2023-04-01T10:26:52;18.27;;;16.37;;
14681;SDS011;7429;52.498;13.480;2023-04-01T10:34:25;16.97;;;15.27;;
14681;SDS011;7429;52.498;13.480;2023-04-01T10:38:26;16.27;;;14.37;;
14681;SDS011;7429;52.498;13.480;2023-04-01T10:41:54;15.17;;;13.77;;
14681;SDS011;7429;52.498;13.480;2023-04-01T10:45:58;14.30;;;12.07;;
14681;SDS011;7429;52.498;13.480;2023-04-01T10:50:10;13.17;;;11.97;;
14681;SDS011;7429;52.498;13.480;2023-04-01T10:57:33;11.30;;;9.80;;
14681;SDS011;7429;52.498;13.480;2023-04-01T11:01:48;9.50;;;8.70;;
14681;SDS011;7429;52.498;13.480;2023-04-01T11:10:02;9.80;;;8.80;;
14681;SDS011;7429;52.498;13.480;2023-04-01T11:14:06;10.43;;;9.53;;
14681;SDS011;7429;52.498;13.480;2023-04-01T11:18:22;8.80;;;8.00;;
14681;SDS011;7429;52.498;13.480;2023-04-01T11:21:50;7.83;;;7.23;;
14681;SDS011;7429;52.498;13.480;2023-04-01T11:33:05;7.47;;;6.77;;
14681;SDS011;7429;52.498;13.480;2023-04-01T11:36:24;7.47;;;6.87;;
14681;SDS011;7429;52.498;13.480;2023-04-01T11:39:46;7.33;;;6.63;;
14681;SDS011;7429;52.498;13.480;2023-04-01T11:43:31;7.23;;;6.47;;
14681;SDS011;7429;52.498;13.480;2023-04-01T11:48:12;7.73;;;6.73;;
14681;SDS011;7429;52.498;13.480;2023-04-01T11:51:44;8.33;;;7.53;;
14681;SDS011;7429;52.498;13.480;2023-04-01T12:02:03;6.77;;;6.20;;
14681;SDS011;7429;52.498;13.480;2023-04-01T12:05:17;8.23;;;6.93;;
14681;SDS011;7429;52.498;13.480;2023-04-01T12:08:36;7.50;;;6.83;;
14681;SDS011;7429;52.498;13.480;2023-04-01T12:11:49;9.47;;;8.67;;
14681;SDS011;7429;52.498;13.480;2023-04-01T12:15:13;8.57;;;7.83;;
14681;SDS011;7429;52.498;13.480;2023-04-01T12:18:24;9.07;;;8.03;;
14681;SDS011;7429;52.498;13.480;2023-04-01T12:21:37;8.87;;;8.13;;
14681;SDS011;7429;52.498;13.480;2023-04-01T12:24:50;9.03;;;8.23;;
14681;SDS011;7429;52.498;13.480;2023-04-01T12:28:03;11.30;;;10.30;;
14681;SDS011;7429;52.498;13.480;2023-04-01T12:31:22;10.30;;;9.30;;
14681;SDS011;7429;52.498;13.480;2023-04-01T12:34:44;9.60;;;8.77;;
14681;SDS011;7429;52.498;13.480;2023-04-01T12:38:21;10.53;;;9.63;;
14681;SDS011;7429;52.498;13.480;2023-04-01T12:41:37;10.77;;;9.77;;
14681;SDS011;7429;52.498;13.480;2023-04-01T12:44:54;11.70;;;10.60;;
14681;SDS011;7429;52.498;13.480;2023-04-01T12:51:50;9.37;;;8.37;;
14681;SDS011;7429;52.498;13.480;2023-04-01T12:55:15;10.27;;;8.93;;
14681;SDS011;7429;52.498;13.480;2023-04-01T12:58:48;9.97;;;8.93;;
14681;SDS011;7429;52.498;13.480;2023-04-01T13:02:20;9.73;;;8.53;;
14681;SDS011;7429;52.498;13.480;2023-04-01T13:05:47;10.83;;;9.83;;
14681;SDS011;7429;52.498;13.480;2023-04-01T13:09:31;12.00;;;10.83;;
14681;SDS011;7429;52.498;13.480;2023-04-01T13:16:34;12.67;;;11.57;;
14681;SDS011;7429;52.498;13.480;2023-04-01T13:19:43;12.33;;;11.13;;
14681;SDS011;7429;52.498;13.480;2023-04-01T13:23:11;12.50;;;11.37;;
14681;SDS011;7429;52.498;13.480;2023-04-01T13:26:28;13.27;;;11.53;;
14681;SDS011;7429;52.498;13.480;2023-04-01T13:29:38;13.60;;;12.40;;
14681;SDS011;7429;52.498;13.480;2023-04-01T13:32:47;12.47;;;11.03;;
14681;SDS011;7429;52.498;13.480;2023-04-01T13:36:02;13.33;;;11.87;;
14681;SDS011;7429;52.498;13.480;2023-04-01T13:39:24;12.27;;;10.97;;
14681;SDS011;7429;52.498;13.480;2023-04-01T13:42:42;10.23;;;9.33;;
14681;SDS011;7429;52.498;13.480;2023-04-01T13:46:02;12.97;;;10.03;;
14681;SDS011;7429;52.498;13.480;2023-04-01T13:49:26;13.43;;;10.87;;
14681;SDS011;7429;52.498;13.480;2023-04-01T13:53:09;10.83;;;9.83;;
14681;SDS011;7429;52.498;13.480;2023-04-01T13:56:39;12.63;;;11.43;;
14681;SDS011;7429;52.498;13.480;2023-04-01T14:03:30;12.80;;;10.27;;
14681;SDS011;7429;52.498;13.480;2023-04-01T14:06:49;11.83;;;9.57;;
14681;SDS011;7429;52.498;13.480;2023-04-01T14:10:08;11.53;;;10.50;;
14681;SDS011;7429;52.498;13.480;2023-04-01T14:13:27;12.87;;;11.73;;
14681;SDS011;7429;52.498;13.480;2023-04-01T14:16:55;13.90;;;12.60;;
14681;SDS011;7429;52.498;13.480;2023-04-01T14:20:20;15.17;;;13.73;;
14681;SDS011;7429;52.498;13.480;2023-04-01T14:23:45;15.27;;;13.87;;
14681;SDS011;7429;52.498;13.480;2023-04-01T14:30:48;14.23;;;12.50;;
14681;SDS011;7429;52.498;13.480;2023-04-01T14:34:25;13.40;;;12.00;;
14681;SDS011;7429;52.498;13.480;2023-04-01T14:37:48;14.97;;;12.80;;
14681;SDS011;7429;52.498;13.480;2023-04-01T14:41:12;12.40;;;11.30;;
14681;SDS011;7429;52.498;13.480;2023-04-01T14:44:28;13.63;;;12.33;;
14681;SDS011;7429;52.498;13.480;2023-04-01T14:48:07;10.20;;;9.47;;
14681;SDS011;7429;52.498;13.480;2023-04-01T14:51:28;9.43;;;8.33;;
14681;SDS011;7429;52.498;13.480;2023-04-01T14:54:35;10.80;;;9.73;;
14681;SDS011;7429;52.498;13.480;2023-04-01T14:57:40;11.53;;;10.50;;
14681;SDS011;7429;52.498;13.480;2023-04-01T15:00:47;13.07;;;11.87;;
14681;SDS011;7429;52.498;13.480;2023-04-01T15:03:59;12.63;;;11.40;;
14681;SDS011;7429;52.498;13.480;2023-04-01T15:07:31;11.10;;;10.10;;
14681;SDS011;7429;52.498;13.480;2023-04-01T15:11:02;10.60;;;9.60;;
14681;SDS011;7429;52.498;13.480;2023-04-01T15:14:35;8.67;;;7.97;;
14681;SDS011;7429;52.498;13.480;2023-04-01T15:18:00;9.30;;;8.40;;
14681;SDS011;7429;52.498;13.480;2023-04-01T15:21:15;11.33;;;10.33;;
14681;SDS011;7429;52.498;13.480;2023-04-01T15:24:30;12.57;;;11.40;;
14681;SDS011;7429;52.498;13.480;2023-04-01T15:27:46;14.00;;;12.70;;
14681;SDS011;7429;52.498;13.480;2023-04-01T15:30:57;14.83;;;13.50;;
14681;SDS011;7429;52.498;13.480;2023-04-01T15:34:21;15.50;;;14.10;;
14681;SDS011;7429;52.498;13.480;2023-04-01T15:37:37;13.70;;;12.23;;
14681;SDS011;7429;52.498;13.480;2023-04-01T15:40:49;13.40;;;12.10;;
14681;SDS011;7429;52.498;13.480;2023-04-01T15:44:00;11.90;;;10.60;;
14681;SDS011;7429;52.498;13.480;2023-04-01T15:47:06;11.90;;;10.00;;
14681;SDS011;7429;52.498;13.480;2023-04-01T15:50:40;12.10;;;9.80;;
14681;SDS011;7429;52.498;13.480;2023-04-01T15:54:08;10.77;;;9.77;;
14681;SDS011;7429;52.498;13.480;2023-04-01T15:57:28;12.60;;;11.50;;
14681;SDS011;7429;52.498;13.480;2023-04-01T16:00:42;10.77;;;9.77;;
14681;SDS011;7429;52.498;13.480;2023-04-01T16:03:53;11.27;;;10.03;;
14681;SDS011;7429;52.498;13.480;2023-04-01T16:07:17;10.87;;;9.60;;
14681;SDS011;7429;52.498;13.480;2023-04-01T16:10:41;11.83;;;10.83;;
14681;SDS011;7429;52.498;13.480;2023-04-01T16:13:58;13.97;;;12.50;;
14681;SDS011;7429;52.498;13.480;2023-04-01T16:17:17;14.60;;;13.23;;
14681;SDS011;7429;52.498;13.480;2023-04-01T16:20:45;15.80;;;12.97;;
14681;SDS011;7429;52.498;13.480;2023-04-01T16:23:55;14.23;;;12.80;;
14681;SDS011;7429;52.498;13.480;2023-04-01T16:27:04;13.83;;;12.33;;
14681;SDS011;7429;52.498;13.480;2023-04-01T16:30:32;12.30;;;11.20;;
14681;SDS011;7429;52.498;13.480;2023-04-01T16:33:40;13.33;;;12.10;;
14681;SDS011;7429;52.498;13.480;2023-04-01T16:36:51;12.63;;;11.13;;
14681;SDS011;7429;52.498;13.480;2023-04-01T16:40:02;15.40;;;14.10;;
14681;SDS011;7429;52.498;13.480;2023-04-01T16:43:28;12.40;;;11.20;;
14681;SDS011;7429;52.498;13.480;2023-04-01T16:46:41;13.50;;;12.10;;
14681;SDS011;7429;52.498;13.480;2023-04-01T16:49:46;12.93;;;11.73;;
14681;SDS011;7429;52.498;13.480;2023-04-01T16:52:58;12.73;;;11.60;;
14681;SDS011;7429;52.498;13.480;2023-04-01T16:56:07;13.03;;;11.83;;
14681;SDS011;7429;52.498;13.480;2023-04-01T16:59:17;11.33;;;10.33;;
14681;SDS011;7429;52.498;13.480;2023-04-01T17:02:25;11.50;;;10.60;;
14681;SDS011;7429;52.498;13.480;2023-04-01T17:05:35;11.57;;;10.57;;
14681;SDS011;7429;52.498;13.480;2023-04-01T17:08:50;11.73;;;10.53;;
14681;SDS011;7429;52.498;13.480;2023-04-01T17:12:12;13.17;;;12.00;;
14681;SDS011;7429;52.498;13.480;2023-04-01T17:15:26;12.97;;;11.83;;
14681;SDS011;7429;52.498;13.480;2023-04-01T17:18:40;12.33;;;11.03;;
14681;SDS011;7429;52.498;13.480;2023-04-01T17:21:57;13.10;;;11.80;;
14681;SDS011;7429;52.498;13.480;2023-04-01T17:25:10;13.23;;;12.03;;
14681;SDS011;7429;52.498;13.480;2023-04-01T17:28:34;12.93;;;11.73;;
14681;SDS011;7429;52.498;13.480;2023-04-01T17:32:03;13.33;;;11.93;;
14681;SDS011;7429;52.498;13.480;2023-04-01T17:35:14;13.00;;;11.77;;
14681;SDS011;7429;52.498;13.480;2023-04-01T17:42:09;12.67;;;11.47;;
14681;SDS011;7429;52.498;13.480;2023-04-01T17:45:20;14.70;;;12.60;;
14681;SDS011;7429;52.498;13.480;2023-04-01T17:48:41;14.70;;;11.73;;
14681;SDS011;7429;52.498;13.480;2023-04-01T17:51:55;12.73;;;10.87;;
14681;SDS011;7429;52.498;13.480;2023-04-01T17:55:15;13.37;;;12.07;;
14681;SDS011;7429;52.498;13.480;2023-04-01T17:58:40;13.07;;;11.77;;
14681;SDS011;7429;52.498;13.480;2023-04-01T18:01:50;13.23;;;12.10;;
14681;SDS011;7429;52.498;13.480;2023-04-01T18:05:18;14.00;;;11.83;;
14681;SDS011;7429;52.498;13.480;2023-04-01T18:08:47;14.87;;;13.50;;
14681;SDS011;7429;52.498;13.480;2023-04-01T18:12:02;15.27;;;13.80;;
14681;SDS011;7429;52.498;13.480;2023-04-01T18:15:18;15.00;;;13.80;;
14681;SDS011;7429;52.498;13.480;2023-04-01T18:18:35;12.67;;;11.67;;
14681;SDS011;7429;52.498;13.480;2023-04-01T18:21:50;13.17;;;12.00;;
14681;SDS011;7429;52.498;13.480;2023-04-01T18:24:58;14.57;;;13.37;;
14681;SDS011;7429;52.498;13.480;2023-04-01T18:28:17;13.17;;;12.00;;
14681;SDS011;7429;52.498;13.480;2023-04-01T18:31:31;14.87;;;13.57;;
14681;SDS011;7429;52.498;13.480;2023-04-01T18:34:41;13.47;;;12.10;;
14681;SDS011;7429;52.498;13.480;2023-04-01T18:37:58;12.57;;;11.37;;
14681;SDS011;7429;52.498;13.480;2023-04-01T18:41:11;14.27;;;12.87;;
14681;SDS011;7429;52.498;13.480;2023-04-01T18:44:22;11.80;;;10.70;;
14681;SDS011;7429;52.498;13.480;2023-04-01T18:47:34;12.33;;;11.13;;
14681;SDS011;7429;52.498;13.480;2023-04-01T18:50:47;11.13;;;9.40;;
14681;SDS011;7429;52.498;13.480;2023-04-01T18:53:58;11.23;;;10.10;;
14681;SDS011;7429;52.498;13.480;2023-04-01T18:57:07;13.93;;;11.87;;
14681;SDS011;7429;52.498;13.480;2023-04-01T19:00:18;10.73;;;9.73;;
14681;SDS011;7429;52.498;13.480;2023-04-01T19:03:25;11.03;;;9.93;;
14681;SDS011;7429;52.498;13.480;2023-04-01T19:06:41;13.23;;;11.93;;
14681;SDS011;7429;52.498;13.480;2023-04-01T19:10:01;10.90;;;9.17;;
14681;SDS011;7429;52.498;13.480;2023-04-01T19:13:44;12.60;;;11.40;;
14681;SDS011;7429;52.498;13.480;2023-04-01T19:17:03;15.13;;;12.00;;
14681;SDS011;7429;52.498;13.480;2023-04-01T19:20:35;16.70;;;12.47;;
14681;SDS011;7429;52.498;13.480;2023-04-01T19:23:53;12.77;;;11.43;;
14681;SDS011;7429;52.498;13.480;2023-04-01T19:27:31;18.07;;;16.40;;
14681;SDS011;7429;52.498;13.480;2023-04-01T19:30:41;15.07;;;13.30;;
14681;SDS011;7429;52.498;13.480;2023-04-01T19:33:59;14.73;;;13.23;;
14681;SDS011;7429;52.498;13.480;2023-04-01T19:37:21;13.60;;;12.20;;
14681;SDS011;7429;52.498;13.480;2023-04-01T19:44:26;14.70;;;11.67;;
14681;SDS011;7429;52.498;13.480;2023-04-01T19:47:50;14.00;;;11.03;;
14681;SDS011;7429;52.498;13.480;2023-04-01T19:51:06;12.63;;;10.30;;
14681;SDS011;7429;52.498;13.480;2023-04-01T19:54:28;16.90;;;11.67;;
14681;SDS011;7429;52.498;13.480;2023-04-01T19:57:45;14.33;;;12.00;;
14681;SDS011;7429;52.498;13.480;2023-04-01T20:01:03;15.40;;;11.67;;
14681;SDS011;7429;52.498;13.480;2023-04-01T20:04:10;14.53;;;11.20;;
14681;SDS011;7429;52.498;13.480;2023-04-01T20:07:18;12.57;;;10.67;;
14681;SDS011;7429;52.498;13.480;2023-04-01T20:10:30;21.63;;;10.63;;
14681;SDS011;7429;52.498;13.480;2023-04-01T20:13:43;12.37;;;11.07;;
14681;SDS011;7429;52.498;13.480;2023-04-01T20:17:00;13.73;;;11.23;;
14681;SDS011;7429;52.498;13.480;2023-04-01T20:20:15;18.53;;;10.90;;
14681;SDS011;7429;52.498;13.480;2023-04-01T20:23:29;12.07;;;10.37;;
14681;SDS011;7429;52.498;13.480;2023-04-01T20:26:43;17.60;;;12.10;;
14681;SDS011;7429;52.498;13.480;2023-04-01T20:29:56;16.60;;;11.40;;
14681;SDS011;7429;52.498;13.480;2023-04-01T20:33:34;17.73;;;13.97;;
14681;SDS011;7429;52.498;13.480;2023-04-01T20:36:58;18.10;;;12.60;;
14681;SDS011;7429;52.498;13.480;2023-04-01T20:47:14;13.37;;;10.30;;
14681;SDS011;7429;52.498;13.480;2023-04-01T20:50:31;16.20;;;11.83;;
14681;SDS011;7429;52.498;13.480;2023-04-01T20:53:48;13.33;;;10.47;;
14681;SDS011;7429;52.498;13.480;2023-04-01T20:56:56;16.57;;;11.03;;
14681;SDS011;7429;52.498;13.480;2023-04-01T21:00:14;15.23;;;11.23;;
14681;SDS011;7429;52.498;13.480;2023-04-01T21:03:34;14.57;;;11.40;;
14681;SDS011;7429;52.498;13.480;2023-04-01T21:06:50;17.03;;;11.17;;
14681;SDS011;7429;52.498;13.480;2023-04-01T21:10:17;14.53;;;10.33;;